sensor_id;sensor_type;location;lat;lon;timestamp;P1;durP1;ratioP1;P2;durP2;ratioP2
79076;SDS011;68477;42.698;23.342;2024-01-30T00:01:41;11.50;;;6.13;;
79076;SDS011;68477;42.698;23.342;2024-01-30T00:04:06;11.23;;;6.80;;
79076;SDS011;68477;42.698;23.342;2024-01-30T00:06:32;11.52;;;6.20;;
79076;SDS011;68477;42.698;23.342;2024-01-30T00:08:57;11.10;;;6.97;;
79076;SDS011;68477;42.698;23.342;2024-01-30T00:11:23;14.10;;;5.95;;
79076;SDS011;68477;42.698;23.342;2024-01-30T00:13:50;8.05;;;5.68;;
79076;SDS011;68477;42.698;23.342;2024-01-30T00:16:24;8.93;;;6.03;;
79076;SDS011;68477;42.698;23.342;2024-01-30T00:18:51;9.55;;;6.03;;
79076;SDS011;68477;42.698;23.342;2024-01-30T00:21:17;8.48;;;4.60;;
79076;SDS011;68477;42.698;23.342;2024-01-30T00:23:43;9.18;;;5.15;;
79076;SDS011;68477;42.698;23.342;2024-01-30T00:26:09;9.70;;;5.35;;
79076;SDS011;68477;42.698;23.342;2024-01-30T00:28:35;8.50;;;4.97;;
79076;SDS011;68477;42.698;23.342;2024-01-30T00:31:00;8.40;;;4.85;;
79076;SDS011;68477;42.698;23.342;2024-01-30T00:33:26;5.65;;;3.33;;
79076;SDS011;68477;42.698;23.342;2024-01-30T00:35:51;9.10;;;5.38;;
79076;SDS011;68477;42.698;23.342;2024-01-30T00:38:17;9.07;;;5.40;;
79076;SDS011;68477;42.698;23.342;2024-01-30T00:40:42;10.82;;;5.53;;
79076;SDS011;68477;42.698;23.342;2024-01-30T00:43:08;9.05;;;5.45;;
79076;SDS011;68477;42.698;23.342;2024-01-30T00:45:33;9.23;;;5.30;;
79076;SDS011;68477;42.698;23.342;2024-01-30T00:47:59;8.43;;;4.60;;
79076;SDS011;68477;42.698;23.342;2024-01-30T00:50:24;8.23;;;4.82;;
79076;SDS011;68477;42.698;23.342;2024-01-30T00:52:50;7.68;;;4.50;;
79076;SDS011;68477;42.698;23.342;2024-01-30T00:55:16;8.20;;;5.07;;
79076;SDS011;68477;42.698;23.342;2024-01-30T00:57:41;8.38;;;4.82;;
79076;SDS011;68477;42.698;23.342;2024-01-30T01:00:07;10.27;;;5.72;;
79076;SDS011;68477;42.698;23.342;2024-01-30T01:02:37;9.13;;;4.85;;
79076;SDS011;68477;42.698;23.342;2024-01-30T01:05:05;6.53;;;4.28;;
79076;SDS011;68477;42.698;23.342;2024-01-30T01:07:32;8.10;;;4.70;;
79076;SDS011;68477;42.698;23.342;2024-01-30T01:09:58;7.68;;;4.68;;
79076;SDS011;68477;42.698;23.342;2024-01-30T01:12:23;7.00;;;4.90;;
79076;SDS011;68477;42.698;23.342;2024-01-30T01:14:49;6.70;;;4.25;;
79076;SDS011;68477;42.698;23.342;2024-01-30T01:17:14;9.18;;;5.35;;
79076;SDS011;68477;42.698;23.342;2024-01-30T01:19:40;8.40;;;4.72;;
79076;SDS011;68477;42.698;23.342;2024-01-30T01:22:05;8.52;;;5.28;;
79076;SDS011;68477;42.698;23.342;2024-01-30T01:24:31;9.20;;;5.25;;
79076;SDS011;68477;42.698;23.342;2024-01-30T01:26:58;10.35;;;5.53;;
79076;SDS011;68477;42.698;23.342;2024-01-30T01:29:23;8.75;;;5.22;;
79076;SDS011;68477;42.698;23.342;2024-01-30T01:31:54;11.85;;;7.03;;
79076;SDS011;68477;42.698;23.342;2024-01-30T01:34:21;5.78;;;3.67;;
79076;SDS011;68477;42.698;23.342;2024-01-30T01:36:48;8.23;;;4.90;;
79076;SDS011;68477;42.698;23.342;2024-01-30T01:39:14;10.35;;;5.50;;
79076;SDS011;68477;42.698;23.342;2024-01-30T01:41:40;9.88;;;5.47;;
79076;SDS011;68477;42.698;23.342;2024-01-30T01:44:06;9.25;;;5.35;;
79076;SDS011;68477;42.698;23.342;2024-01-30T01:46:33;9.75;;;6.05;;
79076;SDS011;68477;42.698;23.342;2024-01-30T01:49:00;9.10;;;5.80;;
79076;SDS011;68477;42.698;23.342;2024-01-30T01:51:27;13.50;;;6.10;;
79076;SDS011;68477;42.698;23.342;2024-01-30T01:53:56;12.80;;;5.10;;
79076;SDS011;68477;42.698;23.342;2024-01-30T01:56:24;11.25;;;5.75;;
79076;SDS011;68477;42.698;23.342;2024-01-30T01:58:50;10.98;;;6.75;;
79076;SDS011;68477;42.698;23.342;2024-01-30T02:01:19;8.35;;;5.65;;
79076;SDS011;68477;42.698;23.342;2024-01-30T02:03:46;14.05;;;6.93;;
79076;SDS011;68477;42.698;23.342;2024-01-30T02:06:15;13.27;;;6.85;;
79076;SDS011;68477;42.698;23.342;2024-01-30T02:08:41;11.50;;;7.13;;
79076;SDS011;68477;42.698;23.342;2024-01-30T02:11:07;9.73;;;6.40;;
79076;SDS011;68477;42.698;23.342;2024-01-30T02:13:33;10.65;;;6.15;;
79076;SDS011;68477;42.698;23.342;2024-01-30T02:15:59;10.45;;;6.22;;
79076;SDS011;68477;42.698;23.342;2024-01-30T02:18:26;13.45;;;7.50;;
79076;SDS011;68477;42.698;23.342;2024-01-30T02:20:52;12.05;;;6.43;;
79076;SDS011;68477;42.698;23.342;2024-01-30T02:23:19;10.30;;;6.13;;
79076;SDS011;68477;42.698;23.342;2024-01-30T02:25:45;9.82;;;6.10;;
79076;SDS011;68477;42.698;23.342;2024-01-30T02:28:11;8.48;;;5.25;;
79076;SDS011;68477;42.698;23.342;2024-01-30T02:30:38;8.60;;;5.22;;
79076;SDS011;68477;42.698;23.342;2024-01-30T02:33:04;11.57;;;5.40;;
79076;SDS011;68477;42.698;23.342;2024-01-30T02:35:30;8.93;;;5.88;;
79076;SDS011;68477;42.698;23.342;2024-01-30T02:37:55;10.32;;;5.28;;
79076;SDS011;68477;42.698;23.342;2024-01-30T02:40:21;8.73;;;5.10;;
79076;SDS011;68477;42.698;23.342;2024-01-30T02:42:46;8.65;;;5.82;;
79076;SDS011;68477;42.698;23.342;2024-01-30T02:45:12;9.38;;;4.63;;
79076;SDS011;68477;42.698;23.342;2024-01-30T02:47:38;7.07;;;3.60;;
79076;SDS011;68477;42.698;23.342;2024-01-30T02:50:04;6.60;;;4.55;;
79076;SDS011;68477;42.698;23.342;2024-01-30T02:52:30;6.88;;;4.15;;
79076;SDS011;68477;42.698;23.342;2024-01-30T02:54:56;7.28;;;5.53;;
79076;SDS011;68477;42.698;23.342;2024-01-30T02:57:21;8.70;;;5.70;;
79076;SDS011;68477;42.698;23.342;2024-01-30T02:59:47;6.72;;;4.90;;
79076;SDS011;68477;42.698;23.342;2024-01-30T03:02:12;6.60;;;3.45;;
79076;SDS011;68477;42.698;23.342;2024-01-30T03:04:40;9.48;;;4.60;;
79076;SDS011;68477;42.698;23.342;2024-01-30T03:07:06;6.65;;;4.78;;
79076;SDS011;68477;42.698;23.342;2024-01-30T03:09:32;6.53;;;4.40;;
79076;SDS011;68477;42.698;23.342;2024-01-30T03:11:58;7.57;;;4.47;;
79076;SDS011;68477;42.698;23.342;2024-01-30T03:14:23;8.05;;;4.22;;
79076;SDS011;68477;42.698;23.342;2024-01-30T03:16:49;8.10;;;4.45;;
79076;SDS011;68477;42.698;23.342;2024-01-30T03:19:14;7.95;;;4.40;;
79076;SDS011;68477;42.698;23.342;2024-01-30T03:21:41;7.25;;;4.40;;
79076;SDS011;68477;42.698;23.342;2024-01-30T03:24:07;6.82;;;4.10;;
79076;SDS011;68477;42.698;23.342;2024-01-30T03:26:32;6.53;;;4.20;;
79076;SDS011;68477;42.698;23.342;2024-01-30T03:28:58;7.18;;;3.85;;
79076;SDS011;68477;42.698;23.342;2024-01-30T03:31:23;5.97;;;3.50;;
79076;SDS011;68477;42.698;23.342;2024-01-30T03:33:50;6.30;;;3.50;;
79076;SDS011;68477;42.698;23.342;2024-01-30T03:36:16;7.65;;;3.53;;
79076;SDS011;68477;42.698;23.342;2024-01-30T03:38:41;5.97;;;3.78;;
79076;SDS011;68477;42.698;23.342;2024-01-30T03:41:07;5.80;;;3.97;;
79076;SDS011;68477;42.698;23.342;2024-01-30T03:43:34;7.18;;;3.75;;
79076;SDS011;68477;42.698;23.342;2024-01-30T03:46:01;5.80;;;3.72;;
79076;SDS011;68477;42.698;23.342;2024-01-30T03:48:27;6.20;;;3.70;;
79076;SDS011;68477;42.698;23.342;2024-01-30T03:50:53;8.02;;;4.03;;
79076;SDS011;68477;42.698;23.342;2024-01-30T03:53:18;5.68;;;3.70;;
79076;SDS011;68477;42.698;23.342;2024-01-30T03:55:43;8.52;;;4.10;;
79076;SDS011;68477;42.698;23.342;2024-01-30T03:58:09;7.35;;;3.85;;
79076;SDS011;68477;42.698;23.342;2024-01-30T04:00:34;10.88;;;3.97;;
79076;SDS011;68477;42.698;23.342;2024-01-30T04:03:00;10.60;;;5.53;;
79076;SDS011;68477;42.698;23.342;2024-01-30T04:05:26;8.32;;;4.53;;
79076;SDS011;68477;42.698;23.342;2024-01-30T04:07:51;8.60;;;5.07;;
79076;SDS011;68477;42.698;23.342;2024-01-30T04:10:17;6.28;;;3.17;;
79076;SDS011;68477;42.698;23.342;2024-01-30T04:12:42;8.75;;;5.30;;
79076;SDS011;68477;42.698;23.342;2024-01-30T04:15:08;9.27;;;4.97;;
79076;SDS011;68477;42.698;23.342;2024-01-30T04:17:34;8.82;;;5.05;;
79076;SDS011;68477;42.698;23.342;2024-01-30T04:19:59;8.82;;;4.90;;
79076;SDS011;68477;42.698;23.342;2024-01-30T04:22:25;9.32;;;5.28;;
79076;SDS011;68477;42.698;23.342;2024-01-30T04:24:50;9.45;;;5.13;;
79076;SDS011;68477;42.698;23.342;2024-01-30T04:27:16;8.25;;;4.63;;
79076;SDS011;68477;42.698;23.342;2024-01-30T04:29:41;8.90;;;5.43;;
79076;SDS011;68477;42.698;23.342;2024-01-30T04:32:07;5.97;;;3.70;;
79076;SDS011;68477;42.698;23.342;2024-01-30T04:34:35;6.18;;;4.22;;
79076;SDS011;68477;42.698;23.342;2024-01-30T04:37:01;7.38;;;4.40;;
79076;SDS011;68477;42.698;23.342;2024-01-30T04:39:27;6.75;;;3.97;;
79076;SDS011;68477;42.698;23.342;2024-01-30T04:41:52;8.48;;;4.43;;
79076;SDS011;68477;42.698;23.342;2024-01-30T04:44:18;7.50;;;4.00;;
79076;SDS011;68477;42.698;23.342;2024-01-30T04:46:43;9.75;;;4.35;;
79076;SDS011;68477;42.698;23.342;2024-01-30T04:49:09;7.97;;;4.57;;
79076;SDS011;68477;42.698;23.342;2024-01-30T04:51:34;7.28;;;4.93;;
79076;SDS011;68477;42.698;23.342;2024-01-30T04:53:59;9.23;;;5.45;;
79076;SDS011;68477;42.698;23.342;2024-01-30T04:56:25;7.28;;;4.20;;
79076;SDS011;68477;42.698;23.342;2024-01-30T04:58:50;9.50;;;5.30;;
79076;SDS011;68477;42.698;23.342;2024-01-30T05:01:16;11.70;;;5.20;;
79076;SDS011;68477;42.698;23.342;2024-01-30T05:03:42;9.65;;;5.22;;
79076;SDS011;68477;42.698;23.342;2024-01-30T05:06:07;7.95;;;4.50;;
79076;SDS011;68477;42.698;23.342;2024-01-30T05:08:33;10.90;;;4.72;;
79076;SDS011;68477;42.698;23.342;2024-01-30T05:11:01;11.82;;;4.38;;
79076;SDS011;68477;42.698;23.342;2024-01-30T05:13:32;8.90;;;4.82;;
79076;SDS011;68477;42.698;23.342;2024-01-30T05:15:58;10.10;;;5.22;;
79076;SDS011;68477;42.698;23.342;2024-01-30T05:18:24;11.10;;;5.65;;
79076;SDS011;68477;42.698;23.342;2024-01-30T05:20:50;8.02;;;4.28;;
79076;SDS011;68477;42.698;23.342;2024-01-30T05:23:16;7.90;;;4.93;;
79076;SDS011;68477;42.698;23.342;2024-01-30T05:25:41;10.18;;;5.22;;
79076;SDS011;68477;42.698;23.342;2024-01-30T05:28:07;15.63;;;5.35;;
79076;SDS011;68477;42.698;23.342;2024-01-30T05:30:33;8.35;;;5.40;;
79076;SDS011;68477;42.698;23.342;2024-01-30T05:32:58;11.00;;;6.75;;
79076;SDS011;68477;42.698;23.342;2024-01-30T05:35:24;11.27;;;5.28;;
79076;SDS011;68477;42.698;23.342;2024-01-30T05:37:49;9.30;;;5.95;;
79076;SDS011;68477;42.698;23.342;2024-01-30T05:40:15;4.65;;;3.05;;
79076;SDS011;68477;42.698;23.342;2024-01-30T05:42:41;6.78;;;4.53;;
79076;SDS011;68477;42.698;23.342;2024-01-30T05:45:10;8.63;;;5.03;;
79076;SDS011;68477;42.698;23.342;2024-01-30T05:47:35;13.48;;;5.55;;
79076;SDS011;68477;42.698;23.342;2024-01-30T05:50:01;10.82;;;5.15;;
79076;SDS011;68477;42.698;23.342;2024-01-30T05:52:26;13.75;;;5.55;;
79076;SDS011;68477;42.698;23.342;2024-01-30T05:54:51;9.27;;;5.90;;
79076;SDS011;68477;42.698;23.342;2024-01-30T05:57:17;11.50;;;6.47;;
79076;SDS011;68477;42.698;23.342;2024-01-30T05:59:43;16.60;;;7.00;;
79076;SDS011;68477;42.698;23.342;2024-01-30T06:02:12;11.15;;;6.43;;
79076;SDS011;68477;42.698;23.342;2024-01-30T06:04:37;9.65;;;5.32;;
79076;SDS011;68477;42.698;23.342;2024-01-30T06:07:03;10.52;;;6.22;;
79076;SDS011;68477;42.698;23.342;2024-01-30T06:09:30;8.63;;;5.05;;
79076;SDS011;68477;42.698;23.342;2024-01-30T06:11:56;9.30;;;4.80;;
79076;SDS011;68477;42.698;23.342;2024-01-30T06:14:21;8.98;;;5.05;;
79076;SDS011;68477;42.698;23.342;2024-01-30T06:16:47;13.38;;;6.28;;
79076;SDS011;68477;42.698;23.342;2024-01-30T06:19:12;11.48;;;3.80;;
79076;SDS011;68477;42.698;23.342;2024-01-30T06:21:38;11.38;;;4.93;;
79076;SDS011;68477;42.698;23.342;2024-01-30T06:24:03;6.80;;;3.83;;
79076;SDS011;68477;42.698;23.342;2024-01-30T06:26:29;5.40;;;3.50;;
79076;SDS011;68477;42.698;23.342;2024-01-30T06:28:55;12.93;;;3.80;;
79076;SDS011;68477;42.698;23.342;2024-01-30T06:31:20;8.18;;;3.50;;
79076;SDS011;68477;42.698;23.342;2024-01-30T06:33:46;6.82;;;3.38;;
79076;SDS011;68477;42.698;23.342;2024-01-30T06:36:13;6.65;;;3.25;;
79076;SDS011;68477;42.698;23.342;2024-01-30T06:38:38;10.75;;;3.50;;
79076;SDS011;68477;42.698;23.342;2024-01-30T06:41:04;4.88;;;3.60;;
79076;SDS011;68477;42.698;23.342;2024-01-30T06:43:30;7.95;;;3.38;;
79076;SDS011;68477;42.698;23.342;2024-01-30T06:45:55;5.60;;;3.20;;
79076;SDS011;68477;42.698;23.342;2024-01-30T06:48:21;12.77;;;4.10;;
79076;SDS011;68477;42.698;23.342;2024-01-30T06:50:46;8.93;;;4.65;;
79076;SDS011;68477;42.698;23.342;2024-01-30T06:53:13;6.70;;;3.40;;
79076;SDS011;68477;42.698;23.342;2024-01-30T06:55:38;7.05;;;3.15;;
79076;SDS011;68477;42.698;23.342;2024-01-30T06:58:04;6.53;;;3.72;;
79076;SDS011;68477;42.698;23.342;2024-01-30T07:00:29;6.75;;;4.05;;
79076;SDS011;68477;42.698;23.342;2024-01-30T07:02:55;5.32;;;3.08;;
79076;SDS011;68477;42.698;23.342;2024-01-30T07:05:22;7.75;;;3.10;;
79076;SDS011;68477;42.698;23.342;2024-01-30T07:07:48;6.57;;;3.65;;
79076;SDS011;68477;42.698;23.342;2024-01-30T07:10:13;5.78;;;3.28;;
79076;SDS011;68477;42.698;23.342;2024-01-30T07:12:39;6.07;;;3.80;;
79076;SDS011;68477;42.698;23.342;2024-01-30T07:15:05;4.65;;;3.33;;
79076;SDS011;68477;42.698;23.342;2024-01-30T07:17:33;7.95;;;3.40;;
79076;SDS011;68477;42.698;23.342;2024-01-30T07:20:00;5.15;;;3.03;;
79076;SDS011;68477;42.698;23.342;2024-01-30T07:22:25;6.03;;;2.78;;
79076;SDS011;68477;42.698;23.342;2024-01-30T07:24:51;4.05;;;2.80;;
79076;SDS011;68477;42.698;23.342;2024-01-30T07:27:17;5.75;;;2.70;;
79076;SDS011;68477;42.698;23.342;2024-01-30T07:29:43;6.25;;;3.08;;
79076;SDS011;68477;42.698;23.342;2024-01-30T07:32:09;5.93;;;2.92;;
79076;SDS011;68477;42.698;23.342;2024-01-30T07:34:34;5.32;;;3.00;;
79076;SDS011;68477;42.698;23.342;2024-01-30T07:37:02;4.22;;;2.50;;
79076;SDS011;68477;42.698;23.342;2024-01-30T07:39:28;6.68;;;2.90;;
79076;SDS011;68477;42.698;23.342;2024-01-30T07:41:53;4.72;;;2.80;;
79076;SDS011;68477;42.698;23.342;2024-01-30T07:44:20;4.53;;;2.72;;
79076;SDS011;68477;42.698;23.342;2024-01-30T07:46:45;7.43;;;3.35;;
79076;SDS011;68477;42.698;23.342;2024-01-30T07:49:11;5.68;;;3.55;;
79076;SDS011;68477;42.698;23.342;2024-01-30T07:51:36;4.40;;;2.55;;
79076;SDS011;68477;42.698;23.342;2024-01-30T07:54:02;5.85;;;2.50;;
79076;SDS011;68477;42.698;23.342;2024-01-30T07:56:27;4.45;;;2.70;;
79076;SDS011;68477;42.698;23.342;2024-01-30T07:58:53;6.10;;;2.85;;
79076;SDS011;68477;42.698;23.342;2024-01-30T08:01:18;5.03;;;2.78;;
79076;SDS011;68477;42.698;23.342;2024-01-30T08:03:45;4.72;;;2.70;;
79076;SDS011;68477;42.698;23.342;2024-01-30T08:06:11;4.22;;;2.55;;
79076;SDS011;68477;42.698;23.342;2024-01-30T08:08:36;4.13;;;2.03;;
79076;SDS011;68477;42.698;23.342;2024-01-30T08:11:03;11.70;;;3.85;;
79076;SDS011;68477;42.698;23.342;2024-01-30T08:13:28;10.07;;;3.15;;
79076;SDS011;68477;42.698;23.342;2024-01-30T08:15:54;6.32;;;3.70;;
79076;SDS011;68477;42.698;23.342;2024-01-30T08:18:19;6.13;;;4.15;;
79076;SDS011;68477;42.698;23.342;2024-01-30T08:20:45;6.55;;;2.92;;
79076;SDS011;68477;42.698;23.342;2024-01-30T08:23:10;8.45;;;4.03;;
79076;SDS011;68477;42.698;23.342;2024-01-30T08:25:36;7.15;;;3.95;;
79076;SDS011;68477;42.698;23.342;2024-01-30T08:28:02;7.50;;;3.22;;
79076;SDS011;68477;42.698;23.342;2024-01-30T08:30:28;7.78;;;3.10;;
79076;SDS011;68477;42.698;23.342;2024-01-30T08:32:53;5.13;;;3.03;;
79076;SDS011;68477;42.698;23.342;2024-01-30T08:35:19;9.88;;;4.03;;
79076;SDS011;68477;42.698;23.342;2024-01-30T08:37:44;6.05;;;3.80;;
79076;SDS011;68477;42.698;23.342;2024-01-30T08:40:10;4.60;;;2.47;;
79076;SDS011;68477;42.698;23.342;2024-01-30T08:42:35;5.53;;;2.65;;
79076;SDS011;68477;42.698;23.342;2024-01-30T08:45:01;6.68;;;3.08;;
79076;SDS011;68477;42.698;23.342;2024-01-30T08:47:27;5.10;;;2.22;;
79076;SDS011;68477;42.698;23.342;2024-01-30T08:49:52;7.25;;;3.22;;
79076;SDS011;68477;42.698;23.342;2024-01-30T08:52:18;7.20;;;3.35;;
79076;SDS011;68477;42.698;23.342;2024-01-30T08:54:43;7.82;;;3.25;;
79076;SDS011;68477;42.698;23.342;2024-01-30T08:57:09;5.45;;;3.08;;
79076;SDS011;68477;42.698;23.342;2024-01-30T08:59:34;7.43;;;3.50;;
79076;SDS011;68477;42.698;23.342;2024-01-30T09:02:00;6.45;;;3.60;;
79076;SDS011;68477;42.698;23.342;2024-01-30T09:04:25;11.18;;;3.75;;
79076;SDS011;68477;42.698;23.342;2024-01-30T09:06:51;7.25;;;3.75;;
79076;SDS011;68477;42.698;23.342;2024-01-30T09:09:17;9.23;;;4.88;;
79076;SDS011;68477;42.698;23.342;2024-01-30T09:11:43;5.07;;;3.13;;
79076;SDS011;68477;42.698;23.342;2024-01-30T09:14:08;11.35;;;4.97;;
79076;SDS011;68477;42.698;23.342;2024-01-30T09:16:34;7.13;;;3.33;;
79076;SDS011;68477;42.698;23.342;2024-01-30T09:19:00;4.85;;;3.17;;
79076;SDS011;68477;42.698;23.342;2024-01-30T09:21:25;6.13;;;3.00;;
79076;SDS011;68477;42.698;23.342;2024-01-30T09:23:53;6.95;;;3.55;;
79076;SDS011;68477;42.698;23.342;2024-01-30T09:26:27;6.45;;;3.97;;
79076;SDS011;68477;42.698;23.342;2024-01-30T09:28:52;8.98;;;4.35;;
79076;SDS011;68477;42.698;23.342;2024-01-30T09:31:17;5.40;;;2.67;;
79076;SDS011;68477;42.698;23.342;2024-01-30T09:33:43;6.35;;;2.72;;
79076;SDS011;68477;42.698;23.342;2024-01-30T09:36:11;5.57;;;3.40;;
79076;SDS011;68477;42.698;23.342;2024-01-30T09:38:40;6.22;;;3.17;;
79076;SDS011;68477;42.698;23.342;2024-01-30T09:41:09;5.60;;;3.08;;
79076;SDS011;68477;42.698;23.342;2024-01-30T09:43:38;4.13;;;2.47;;
79076;SDS011;68477;42.698;23.342;2024-01-30T09:46:07;3.92;;;2.75;;
79076;SDS011;68477;42.698;23.342;2024-01-30T09:48:37;6.95;;;3.80;;
79076;SDS011;68477;42.698;23.342;2024-01-30T09:51:03;6.03;;;2.80;;
79076;SDS011;68477;42.698;23.342;2024-01-30T09:53:29;5.57;;;3.42;;
79076;SDS011;68477;42.698;23.342;2024-01-30T09:55:54;3.47;;;2.10;;
79076;SDS011;68477;42.698;23.342;2024-01-30T09:58:20;2.88;;;1.92;;
79076;SDS011;68477;42.698;23.342;2024-01-30T10:00:45;5.13;;;2.42;;
79076;SDS011;68477;42.698;23.342;2024-01-30T10:03:11;8.38;;;3.38;;
79076;SDS011;68477;42.698;23.342;2024-01-30T10:05:36;6.35;;;3.05;;
79076;SDS011;68477;42.698;23.342;2024-01-30T10:08:05;5.40;;;3.05;;
79076;SDS011;68477;42.698;23.342;2024-01-30T10:10:35;10.80;;;3.30;;
79076;SDS011;68477;42.698;23.342;2024-01-30T10:13:01;8.20;;;3.10;;
79076;SDS011;68477;42.698;23.342;2024-01-30T10:15:27;6.05;;;3.03;;
79076;SDS011;68477;42.698;23.342;2024-01-30T10:17:54;4.55;;;2.47;;
79076;SDS011;68477;42.698;23.342;2024-01-30T10:20:19;5.15;;;2.63;;
79076;SDS011;68477;42.698;23.342;2024-01-30T10:22:48;4.90;;;2.90;;
79076;SDS011;68477;42.698;23.342;2024-01-30T10:25:14;6.18;;;2.88;;
79076;SDS011;68477;42.698;23.342;2024-01-30T10:27:40;4.30;;;2.20;;
79076;SDS011;68477;42.698;23.342;2024-01-30T10:30:06;3.85;;;2.70;;
79076;SDS011;68477;42.698;23.342;2024-01-30T10:32:33;4.72;;;2.65;;
79076;SDS011;68477;42.698;23.342;2024-01-30T10:34:58;5.55;;;2.38;;
79076;SDS011;68477;42.698;23.342;2024-01-30T10:37:24;3.70;;;2.38;;
79076;SDS011;68477;42.698;23.342;2024-01-30T10:39:51;5.00;;;2.25;;
79076;SDS011;68477;42.698;23.342;2024-01-30T10:42:20;8.73;;;3.10;;
79076;SDS011;68477;42.698;23.342;2024-01-30T10:45:00;5.30;;;2.38;;
79076;SDS011;68477;42.698;23.342;2024-01-30T10:47:34;3.90;;;2.58;;
79076;SDS011;68477;42.698;23.342;2024-01-30T10:50:01;5.20;;;2.78;;
79076;SDS011;68477;42.698;23.342;2024-01-30T10:52:28;7.05;;;2.50;;
79076;SDS011;68477;42.698;23.342;2024-01-30T10:54:55;3.50;;;1.60;;
79076;SDS011;68477;42.698;23.342;2024-01-30T10:57:22;2.85;;;1.50;;
79076;SDS011;68477;42.698;23.342;2024-01-30T11:02:18;4.90;;;2.53;;
79076;SDS011;68477;42.698;23.342;2024-01-30T11:04:45;4.47;;;2.70;;
79076;SDS011;68477;42.698;23.342;2024-01-30T11:07:17;3.20;;;1.80;;
79076;SDS011;68477;42.698;23.342;2024-01-30T11:09:50;5.43;;;2.80;;
79076;SDS011;68477;42.698;23.342;2024-01-30T11:12:16;3.60;;;2.35;;
79076;SDS011;68477;42.698;23.342;2024-01-30T11:14:48;8.25;;;2.35;;
79076;SDS011;68477;42.698;23.342;2024-01-30T11:17:13;5.60;;;2.53;;
79076;SDS011;68477;42.698;23.342;2024-01-30T11:19:39;4.13;;;2.10;;
79076;SDS011;68477;42.698;23.342;2024-01-30T11:22:08;5.65;;;2.92;;
79076;SDS011;68477;42.698;23.342;2024-01-30T11:24:40;4.65;;;2.67;;
79076;SDS011;68477;42.698;23.342;2024-01-30T11:27:09;5.40;;;2.92;;
79076;SDS011;68477;42.698;23.342;2024-01-30T11:29:35;3.95;;;2.72;;
79076;SDS011;68477;42.698;23.342;2024-01-30T11:32:01;4.95;;;2.65;;
79076;SDS011;68477;42.698;23.342;2024-01-30T11:34:27;5.13;;;2.72;;
79076;SDS011;68477;42.698;23.342;2024-01-30T11:36:56;4.10;;;2.65;;
79076;SDS011;68477;42.698;23.342;2024-01-30T11:39:27;5.95;;;2.83;;
79076;SDS011;68477;42.698;23.342;2024-01-30T11:41:52;4.53;;;2.78;;
79076;SDS011;68477;42.698;23.342;2024-01-30T11:44:21;6.65;;;3.30;;
79076;SDS011;68477;42.698;23.342;2024-01-30T11:46:48;8.10;;;2.90;;
79076;SDS011;68477;42.698;23.342;2024-01-30T11:49:14;5.75;;;2.65;;
79076;SDS011;68477;42.698;23.342;2024-01-30T11:51:42;8.05;;;3.40;;
79076;SDS011;68477;42.698;23.342;2024-01-30T11:54:08;2.90;;;1.88;;
79076;SDS011;68477;42.698;23.342;2024-01-30T11:56:34;7.72;;;3.22;;
79076;SDS011;68477;42.698;23.342;2024-01-30T11:59:00;4.57;;;2.22;;
79076;SDS011;68477;42.698;23.342;2024-01-30T12:01:29;6.88;;;3.20;;
79076;SDS011;68477;42.698;23.342;2024-01-30T12:03:54;4.22;;;2.63;;
79076;SDS011;68477;42.698;23.342;2024-01-30T12:06:22;4.90;;;3.10;;
79076;SDS011;68477;42.698;23.342;2024-01-30T12:08:57;5.82;;;3.55;;
79076;SDS011;68477;42.698;23.342;2024-01-30T12:11:25;7.15;;;3.28;;
79076;SDS011;68477;42.698;23.342;2024-01-30T12:13:51;6.10;;;2.97;;
79076;SDS011;68477;42.698;23.342;2024-01-30T12:16:18;5.65;;;3.08;;
79076;SDS011;68477;42.698;23.342;2024-01-30T12:18:44;7.72;;;3.53;;
79076;SDS011;68477;42.698;23.342;2024-01-30T12:21:09;4.97;;;2.83;;
79076;SDS011;68477;42.698;23.342;2024-01-30T12:23:35;6.43;;;3.50;;
79076;SDS011;68477;42.698;23.342;2024-01-30T12:26:01;5.97;;;2.80;;
79076;SDS011;68477;42.698;23.342;2024-01-30T12:28:28;5.50;;;3.25;;
79076;SDS011;68477;42.698;23.342;2024-01-30T12:31:00;4.43;;;2.45;;
79076;SDS011;68477;42.698;23.342;2024-01-30T12:33:28;6.18;;;3.13;;
79076;SDS011;68477;42.698;23.342;2024-01-30T12:35:54;8.27;;;3.30;;
79076;SDS011;68477;42.698;23.342;2024-01-30T12:38:20;6.13;;;3.15;;
79076;SDS011;68477;42.698;23.342;2024-01-30T12:40:45;7.53;;;3.40;;
79076;SDS011;68477;42.698;23.342;2024-01-30T12:43:13;5.90;;;3.13;;
79076;SDS011;68477;42.698;23.342;2024-01-30T12:45:39;3.60;;;1.80;;
79076;SDS011;68477;42.698;23.342;2024-01-30T12:48:04;5.28;;;2.63;;
79076;SDS011;68477;42.698;23.342;2024-01-30T12:50:30;4.53;;;2.83;;
79076;SDS011;68477;42.698;23.342;2024-01-30T12:52:56;4.10;;;2.78;;
79076;SDS011;68477;42.698;23.342;2024-01-30T12:55:21;8.55;;;3.05;;
79076;SDS011;68477;42.698;23.342;2024-01-30T12:57:47;5.05;;;2.58;;
79076;SDS011;68477;42.698;23.342;2024-01-30T13:00:12;8.13;;;3.45;;
79076;SDS011;68477;42.698;23.342;2024-01-30T13:02:38;7.82;;;3.00;;
79076;SDS011;68477;42.698;23.342;2024-01-30T13:05:04;5.35;;;3.00;;
79076;SDS011;68477;42.698;23.342;2024-01-30T13:07:30;5.68;;;3.17;;
79076;SDS011;68477;42.698;23.342;2024-01-30T13:09:56;8.23;;;3.78;;
79076;SDS011;68477;42.698;23.342;2024-01-30T13:12:27;5.30;;;3.67;;
79076;SDS011;68477;42.698;23.342;2024-01-30T13:14:53;6.85;;;3.50;;
79076;SDS011;68477;42.698;23.342;2024-01-30T13:17:21;13.82;;;3.58;;
79076;SDS011;68477;42.698;23.342;2024-01-30T13:19:46;5.22;;;2.65;;
79076;SDS011;68477;42.698;23.342;2024-01-30T13:22:14;5.72;;;3.38;;
79076;SDS011;68477;42.698;23.342;2024-01-30T13:24:40;6.88;;;3.35;;
79076;SDS011;68477;42.698;23.342;2024-01-30T13:27:06;8.82;;;3.85;;
79076;SDS011;68477;42.698;23.342;2024-01-30T13:29:32;9.52;;;3.60;;
79076;SDS011;68477;42.698;23.342;2024-01-30T13:31:58;9.93;;;4.03;;
79076;SDS011;68477;42.698;23.342;2024-01-30T13:34:23;10.05;;;4.63;;
79076;SDS011;68477;42.698;23.342;2024-01-30T13:36:50;7.28;;;3.45;;
79076;SDS011;68477;42.698;23.342;2024-01-30T13:39:15;7.28;;;3.67;;
79076;SDS011;68477;42.698;23.342;2024-01-30T13:41:41;8.88;;;4.35;;
79076;SDS011;68477;42.698;23.342;2024-01-30T13:44:07;6.22;;;3.92;;
79076;SDS011;68477;42.698;23.342;2024-01-30T13:46:34;5.90;;;3.72;;
79076;SDS011;68477;42.698;23.342;2024-01-30T13:49:00;5.82;;;3.28;;
79076;SDS011;68477;42.698;23.342;2024-01-30T13:51:26;6.57;;;3.30;;
79076;SDS011;68477;42.698;23.342;2024-01-30T13:53:52;3.72;;;2.28;;
79076;SDS011;68477;42.698;23.342;2024-01-30T13:56:17;6.60;;;3.53;;
79076;SDS011;68477;42.698;23.342;2024-01-30T13:58:49;5.88;;;3.35;;
79076;SDS011;68477;42.698;23.342;2024-01-30T14:01:16;7.63;;;4.00;;
79076;SDS011;68477;42.698;23.342;2024-01-30T14:03:42;6.28;;;3.90;;
79076;SDS011;68477;42.698;23.342;2024-01-30T14:06:07;6.10;;;3.63;;
79076;SDS011;68477;42.698;23.342;2024-01-30T14:08:34;7.13;;;4.25;;
79076;SDS011;68477;42.698;23.342;2024-01-30T14:10:59;5.43;;;3.15;;
79076;SDS011;68477;42.698;23.342;2024-01-30T14:13:25;5.32;;;3.05;;
79076;SDS011;68477;42.698;23.342;2024-01-30T14:15:52;7.55;;;3.38;;
79076;SDS011;68477;42.698;23.342;2024-01-30T14:18:18;5.75;;;3.47;;
79076;SDS011;68477;42.698;23.342;2024-01-30T14:20:45;5.80;;;3.45;;
79076;SDS011;68477;42.698;23.342;2024-01-30T14:23:10;7.10;;;3.80;;
79076;SDS011;68477;42.698;23.342;2024-01-30T14:25:36;6.53;;;3.65;;
79076;SDS011;68477;42.698;23.342;2024-01-30T14:28:01;7.50;;;3.55;;
79076;SDS011;68477;42.698;23.342;2024-01-30T14:30:27;13.40;;;4.30;;